sensor_id;sensor_type;location;lat;lon;timestamp;temperature;humidity
4749;DHT22;2388;53.582;9.962;2023-05-07T00:01:04;9.50;99.90
4749;DHT22;2388;53.582;9.962;2023-05-07T00:03:31;9.50;99.90
4749;DHT22;2388;53.582;9.962;2023-05-07T00:05:57;9.50;99.90
4749;DHT22;2388;53.582;9.962;2023-05-07T00:08:23;9.50;99.90
4749;DHT22;2388;53.582;9.962;2023-05-07T00:10:48;9.50;99.90
4749;DHT22;2388;53.582;9.962;2023-05-07T00:13:14;9.50;99.90
4749;DHT22;2388;53.582;9.962;2023-05-07T00:15:40;9.50;99.90
4749;DHT22;2388;53.582;9.962;2023-05-07T00:18:05;9.60;99.90
4749;DHT22;2388;53.582;9.962;2023-05-07T00:20:31;9.60;99.90
4749;DHT22;2388;53.582;9.962;2023-05-07T00:22:57;9.60;99.90
4749;DHT22;2388;53.582;9.962;2023-05-07T00:25:22;9.60;99.90
4749;DHT22;2388;53.582;9.962;2023-05-07T00:27:48;9.50;99.90
4749;DHT22;2388;53.582;9.962;2023-05-07T00:30:13;9.50;99.90
4749;DHT22;2388;53.582;9.962;2023-05-07T00:32:39;9.50;99.90
4749;DHT22;2388;53.582;9.962;2023-05-07T00:35:06;9.60;99.90
4749;DHT22;2388;53.582;9.962;2023-05-07T00:37:31;9.60;99.90
4749;DHT22;2388;53.582;9.962;2023-05-07T00:39:58;9.50;99.90
4749;DHT22;2388;53.582;9.962;2023-05-07T00:42:24;9.50;99.90
4749;DHT22;2388;53.582;9.962;2023-05-07T00:44:49;9.50;99.90
4749;DHT22;2388;53.582;9.962;2023-05-07T00:47:16;9.50;99.90
4749;DHT22;2388;53.582;9.962;2023-05-07T00:49:43;9.60;99.90
4749;DHT22;2388;53.582;9.962;2023-05-07T00:52:14;9.60;99.90
4749;DHT22;2388;53.582;9.962;2023-05-07T00:54:41;9.60;99.90
4749;DHT22;2388;53.582;9.962;2023-05-07T00:57:07;9.60;99.90
4749;DHT22;2388;53.582;9.962;2023-05-07T00:59:34;9.60;99.90
4749;DHT22;2388;53.582;9.962;2023-05-07T01:02:00;9.60;99.90
4749;DHT22;2388;53.582;9.962;2023-05-07T01:04:26;9.60;99.90
4749;DHT22;2388;53.582;9.962;2023-05-07T01:06:53;9.60;99.90
4749;DHT22;2388;53.582;9.962;2023-05-07T01:09:21;9.60;99.90
4749;DHT22;2388;53.582;9.962;2023-05-07T01:11:48;9.60;99.90
4749;DHT22;2388;53.582;9.962;2023-05-07T01:14:14;9.60;99.90
4749;DHT22;2388;53.582;9.962;2023-05-07T01:16:40;9.60;99.90
4749;DHT22;2388;53.582;9.962;2023-05-07T01:19:08;9.60;99.90
4749;DHT22;2388;53.582;9.962;2023-05-07T01:21:37;9.70;99.90
4749;DHT22;2388;53.582;9.962;2023-05-07T01:24:02;9.70;99.90
4749;DHT22;2388;53.582;9.962;2023-05-07T01:26:28;9.70;99.90
4749;DHT22;2388;53.582;9.962;2023-05-07T01:28:54;9.70;99.90
4749;DHT22;2388;53.582;9.962;2023-05-07T01:31:20;9.70;99.90
4749;DHT22;2388;53.582;9.962;2023-05-07T01:33:48;9.60;99.90
4749;DHT22;2388;53.582;9.962;2023-05-07T01:36:14;9.60;99.90
4749;DHT22;2388;53.582;9.962;2023-05-07T01:38:40;9.60;99.90
4749;DHT22;2388;53.582;9.962;2023-05-07T01:41:07;9.60;99.90
4749;DHT22;2388;53.582;9.962;2023-05-07T01:43:33;9.70;99.90
4749;DHT22;2388;53.582;9.962;2023-05-07T01:45:59;9.70;99.90
4749;DHT22;2388;53.582;9.962;2023-05-07T01:48:26;9.70;99.90
4749;DHT22;2388;53.582;9.962;2023-05-07T01:50:52;9.70;99.90
4749;DHT22;2388;53.582;9.962;2023-05-07T01:53:18;9.70;99.90
4749;DHT22;2388;53.582;9.962;2023-05-07T01:55:43;9.60;99.90
4749;DHT22;2388;53.582;9.962;2023-05-07T01:58:09;9.60;99.90
4749;DHT22;2388;53.582;9.962;2023-05-07T02:00:34;9.60;99.90
4749;DHT22;2388;53.582;9.962;2023-05-07T02:03:00;9.60;99.90
4749;DHT22;2388;53.582;9.962;2023-05-07T02:05:25;9.60;99.90
4749;DHT22;2388;53.582;9.962;2023-05-07T02:07:51;9.60;99.90
4749;DHT22;2388;53.582;9.962;2023-05-07T02:10:16;9.60;99.90
4749;DHT22;2388;53.582;9.962;2023-05-07T02:12:42;9.60;99.90
4749;DHT22;2388;53.582;9.962;2023-05-07T02:15:08;9.60;99.90
4749;DHT22;2388;53.582;9.962;2023-05-07T02:17:33;9.60;99.90
4749;DHT22;2388;53.582;9.962;2023-05-07T02:19:59;9.60;99.90
4749;DHT22;2388;53.582;9.962;2023-05-07T02:22:25;9.60;99.90
4749;DHT22;2388;53.582;9.962;2023-05-07T02:24:51;9.60;99.90
4749;DHT22;2388;53.582;9.962;2023-05-07T02:27:16;9.60;99.90
4749;DHT22;2388;53.582;9.962;2023-05-07T02:29:42;9.60;99.90
4749;DHT22;2388;53.582;9.962;2023-05-07T02:32:07;9.60;99.90
4749;DHT22;2388;53.582;9.962;2023-05-07T02:34:33;9.60;99.90
4749;DHT22;2388;53.582;9.962;2023-05-07T02:36:58;9.50;99.90
4749;DHT22;2388;53.582;9.962;2023-05-07T02:39:24;9.50;99.90
4749;DHT22;2388;53.582;9.962;2023-05-07T02:41:49;9.50;99.90
4749;DHT22;2388;53.582;9.962;2023-05-07T02:44:15;9.60;99.90
4749;DHT22;2388;53.582;9.962;2023-05-07T02:46:40;9.50;99.90
4749;DHT22;2388;53.582;9.962;2023-05-07T02:49:06;9.50;99.90
4749;DHT22;2388;53.582;9.962;2023-05-07T02:51:31;9.50;99.90
4749;DHT22;2388;53.582;9.962;2023-05-07T02:53:57;9.50;99.90
4749;DHT22;2388;53.582;9.962;2023-05-07T02:56:23;9.50;99.90
4749;DHT22;2388;53.582;9.962;2023-05-07T02:58:48;9.50;99.90
4749;DHT22;2388;53.582;9.962;2023-05-07T03:01:14;9.50;99.90
4749;DHT22;2388;53.582;9.962;2023-05-07T03:03:40;9.50;99.90
4749;DHT22;2388;53.582;9.962;2023-05-07T03:06:05;9.50;99.90
4749;DHT22;2388;53.582;9.962;2023-05-07T03:08:32;9.40;99.90
4749;DHT22;2388;53.582;9.962;2023-05-07T03:10:58;9.40;99.90
4749;DHT22;2388;53.582;9.962;2023-05-07T03:13:23;9.40;99.90
4749;DHT22;2388;53.582;9.962;2023-05-07T03:15:49;9.40;99.90
4749;DHT22;2388;53.582;9.962;2023-05-07T03:18:14;9.40;99.90
4749;DHT22;2388;53.582;9.962;2023-05-07T03:20:40;9.50;99.90
4749;DHT22;2388;53.582;9.962;2023-05-07T03:23:05;9.50;99.90
4749;DHT22;2388;53.582;9.962;2023-05-07T03:25:32;9.50;99.90
4749;DHT22;2388;53.582;9.962;2023-05-07T03:27:57;9.50;99.90
4749;DHT22;2388;53.582;9.962;2023-05-07T03:30:23;9.50;99.90
4749;DHT22;2388;53.582;9.962;2023-05-07T03:32:49;9.40;99.90
4749;DHT22;2388;53.582;9.962;2023-05-07T03:35:14;9.40;99.90
4749;DHT22;2388;53.582;9.962;2023-05-07T03:37:40;9.40;99.90
4749;DHT22;2388;53.582;9.962;2023-05-07T03:40:06;9.40;99.90
4749;DHT22;2388;53.582;9.962;2023-05-07T03:42:32;9.40;99.90
4749;DHT22;2388;53.582;9.962;2023-05-07T03:44:58;9.50;99.90
4749;DHT22;2388;53.582;9.962;2023-05-07T03:47:23;9.40;99.90
4749;DHT22;2388;53.582;9.962;2023-05-07T03:49:49;9.40;99.90
4749;DHT22;2388;53.582;9.962;2023-05-07T03:52:15;9.40;99.90
4749;DHT22;2388;53.582;9.962;2023-05-07T03:54:41;9.50;99.90
4749;DHT22;2388;53.582;9.962;2023-05-07T03:57:06;9.50;99.90
4749;DHT22;2388;53.582;9.962;2023-05-07T03:59:32;9.50;99.90
4749;DHT22;2388;53.582;9.962;2023-05-07T04:01:58;9.50;99.90
4749;DHT22;2388;53.582;9.962;2023-05-07T04:04:23;9.50;99.90
4749;DHT22;2388;53.582;9.962;2023-05-07T04:06:49;9.50;99.90
4749;DHT22;2388;53.582;9.962;2023-05-07T04:09:14;9.40;99.90
4749;DHT22;2388;53.582;9.962;2023-05-07T04:11:40;9.40;99.90
4749;DHT22;2388;53.582;9.962;2023-05-07T04:14:06;9.40;99.90
4749;DHT22;2388;53.582;9.962;2023-05-07T04:16:31;9.50;99.90
4749;DHT22;2388;53.582;9.962;2023-05-07T04:18:57;9.40;99.90
4749;DHT22;2388;53.582;9.962;2023-05-07T04:21:22;9.50;99.90
4749;DHT22;2388;53.582;9.962;2023-05-07T04:23:48;9.50;99.90
4749;DHT22;2388;53.582;9.962;2023-05-07T04:26:14;9.50;99.90
4749;DHT22;2388;53.582;9.962;2023-05-07T04:28:41;9.50;99.90
4749;DHT22;2388;53.582;9.962;2023-05-07T04:31:07;9.50;99.90
4749;DHT22;2388;53.582;9.962;2023-05-07T04:33:33;9.50;99.90
4749;DHT22;2388;53.582;9.962;2023-05-07T04:36:01;9.50;99.90
4749;DHT22;2388;53.582;9.962;2023-05-07T04:38:29;9.60;99.90
4749;DHT22;2388;53.582;9.962;2023-05-07T04:40:55;9.60;99.90
4749;DHT22;2388;53.582;9.962;2023-05-07T04:43:21;9.60;99.90
4749;DHT22;2388;53.582;9.962;2023-05-07T04:45:46;9.60;99.90
4749;DHT22;2388;53.582;9.962;2023-05-07T04:48:12;9.60;99.90
4749;DHT22;2388;53.582;9.962;2023-05-07T04:50:39;9.60;99.90
4749;DHT22;2388;53.582;9.962;2023-05-07T04:53:05;9.60;99.90
4749;DHT22;2388;53.582;9.962;2023-05-07T04:55:30;9.60;99.90
4749;DHT22;2388;53.582;9.962;2023-05-07T04:57:56;9.60;99.90
4749;DHT22;2388;53.582;9.962;2023-05-07T05:00:21;9.60;99.90
4749;DHT22;2388;53.582;9.962;2023-05-07T05:02:48;9.70;99.90
4749;DHT22;2388;53.582;9.962;2023-05-07T05:05:13;9.70;99.90
4749;DHT22;2388;53.582;9.962;2023-05-07T05:07:39;9.70;99.90
4749;DHT22;2388;53.582;9.962;2023-05-07T05:10:05;9.60;99.90
4749;DHT22;2388;53.582;9.962;2023-05-07T05:12:31;9.60;99.90
4749;DHT22;2388;53.582;9.962;2023-05-07T05:14:56;9.60;99.90
4749;DHT22;2388;53.582;9.962;2023-05-07T05:17:22;9.70;99.90
4749;DHT22;2388;53.582;9.962;2023-05-07T05:19:47;9.70;99.90
4749;DHT22;2388;53.582;9.962;2023-05-07T05:22:13;9.80;99.90
4749;DHT22;2388;53.582;9.962;2023-05-07T05:24:38;9.70;99.90
4749;DHT22;2388;53.582;9.962;2023-05-07T05:29:32;9.80;99.90
4749;DHT22;2388;53.582;9.962;2023-05-07T05:31:57;9.70;99.90
4749;DHT22;2388;53.582;9.962;2023-05-07T05:34:23;9.70;99.90
4749;DHT22;2388;53.582;9.962;2023-05-07T05:36:48;9.70;99.90
4749;DHT22;2388;53.582;9.962;2023-05-07T05:39:14;9.70;99.90
4749;DHT22;2388;53.582;9.962;2023-05-07T05:41:39;9.70;99.90
4749;DHT22;2388;53.582;9.962;2023-05-07T05:44:05;9.70;99.90
4749;DHT22;2388;53.582;9.962;2023-05-07T05:46:30;9.70;99.90
4749;DHT22;2388;53.582;9.962;2023-05-07T05:48:56;9.70;99.90
4749;DHT22;2388;53.582;9.962;2023-05-07T05:51:22;9.70;99.90
4749;DHT22;2388;53.582;9.962;2023-05-07T05:53:48;9.70;99.90
4749;DHT22;2388;53.582;9.962;2023-05-07T05:56:14;9.70;99.90
4749;DHT22;2388;53.582;9.962;2023-05-07T05:58:40;9.70;99.90
4749;DHT22;2388;53.582;9.962;2023-05-07T06:01:06;9.70;99.90
4749;DHT22;2388;53.582;9.962;2023-05-07T06:03:31;9.80;99.90
4749;DHT22;2388;53.582;9.962;2023-05-07T06:06:00;9.70;99.90
4749;DHT22;2388;53.582;9.962;2023-05-07T06:08:28;9.70;99.90
4749;DHT22;2388;53.582;9.962;2023-05-07T06:10:54;9.70;99.90
4749;DHT22;2388;53.582;9.962;2023-05-07T06:13:20;9.80;99.90
4749;DHT22;2388;53.582;9.962;2023-05-07T06:15:45;9.80;99.90
4749;DHT22;2388;53.582;9.962;2023-05-07T06:18:11;9.80;99.90
4749;DHT22;2388;53.582;9.962;2023-05-07T06:20:36;9.80;99.90
4749;DHT22;2388;53.582;9.962;2023-05-07T06:23:02;9.80;99.90
4749;DHT22;2388;53.582;9.962;2023-05-07T06:25:27;9.80;99.90
4749;DHT22;2388;53.582;9.962;2023-05-07T06:27:53;9.80;99.90
4749;DHT22;2388;53.582;9.962;2023-05-07T06:30:18;9.80;99.90
4749;DHT22;2388;53.582;9.962;2023-05-07T06:32:44;9.80;99.90
4749;DHT22;2388;53.582;9.962;2023-05-07T06:35:09;9.80;99.90
4749;DHT22;2388;53.582;9.962;2023-05-07T06:37:35;9.80;99.90
4749;DHT22;2388;53.582;9.962;2023-05-07T06:40:04;9.80;99.90
4749;DHT22;2388;53.582;9.962;2023-05-07T06:42:30;9.90;99.90
4749;DHT22;2388;53.582;9.962;2023-05-07T06:44:55;9.90;99.90
4749;DHT22;2388;53.582;9.962;2023-05-07T06:47:21;9.90;99.90
4749;DHT22;2388;53.582;9.962;2023-05-07T06:49:46;9.90;99.90
4749;DHT22;2388;53.582;9.962;2023-05-07T06:52:12;9.90;99.90
4749;DHT22;2388;53.582;9.962;2023-05-07T06:54:37;10.00;99.90
4749;DHT22;2388;53.582;9.962;2023-05-07T06:57:03;10.00;99.90
4749;DHT22;2388;53.582;9.962;2023-05-07T06:59:28;10.00;99.90
4749;DHT22;2388;53.582;9.962;2023-05-07T07:01:54;9.90;99.90
4749;DHT22;2388;53.582;9.962;2023-05-07T07:04:19;9.90;99.90
4749;DHT22;2388;53.582;9.962;2023-05-07T07:06:47;10.00;99.90
4749;DHT22;2388;53.582;9.962;2023-05-07T07:09:13;10.00;99.90
4749;DHT22;2388;53.582;9.962;2023-05-07T07:11:38;10.00;99.90
4749;DHT22;2388;53.582;9.962;2023-05-07T07:14:04;10.00;99.90
4749;DHT22;2388;53.582;9.962;2023-05-07T07:16:30;10.00;99.90
4749;DHT22;2388;53.582;9.962;2023-05-07T07:18:55;10.00;99.90
4749;DHT22;2388;53.582;9.962;2023-05-07T07:21:21;10.10;99.90
4749;DHT22;2388;53.582;9.962;2023-05-07T07:23:46;10.10;99.90
4749;DHT22;2388;53.582;9.962;2023-05-07T07:26:12;10.10;99.90
4749;DHT22;2388;53.582;9.962;2023-05-07T07:28:44;10.20;99.90
4749;DHT22;2388;53.582;9.962;2023-05-07T07:31:10;10.20;99.90
4749;DHT22;2388;53.582;9.962;2023-05-07T07:33:36;10.20;99.90
4749;DHT22;2388;53.582;9.962;2023-05-07T07:36:02;10.20;99.90
4749;DHT22;2388;53.582;9.962;2023-05-07T07:38:27;10.20;99.90
4749;DHT22;2388;53.582;9.962;2023-05-07T07:40:53;10.30;99.90
4749;DHT22;2388;53.582;9.962;2023-05-07T07:43:18;10.30;99.90
4749;DHT22;2388;53.582;9.962;2023-05-07T07:45:44;10.20;99.90
4749;DHT22;2388;53.582;9.962;2023-05-07T07:48:11;10.30;99.90
4749;DHT22;2388;53.582;9.962;2023-05-07T07:50:36;10.40;99.90
4749;DHT22;2388;53.582;9.962;2023-05-07T07:53:02;10.40;99.90
4749;DHT22;2388;53.582;9.962;2023-05-07T07:55:27;10.40;99.90
4749;DHT22;2388;53.582;9.962;2023-05-07T07:57:53;10.50;99.90
4749;DHT22;2388;53.582;9.962;2023-05-07T08:00:19;10.50;99.90
4749;DHT22;2388;53.582;9.962;2023-05-07T08:02:44;10.50;99.90
4749;DHT22;2388;53.582;9.962;2023-05-07T08:05:10;10.60;99.90
4749;DHT22;2388;53.582;9.962;2023-05-07T08:07:35;10.60;99.90
4749;DHT22;2388;53.582;9.962;2023-05-07T08:10:01;10.60;99.90
4749;DHT22;2388;53.582;9.962;2023-05-07T08:12:27;10.70;99.90
4749;DHT22;2388;53.582;9.962;2023-05-07T08:14:53;10.60;99.90
4749;DHT22;2388;53.582;9.962;2023-05-07T08:17:18;10.70;99.90
4749;DHT22;2388;53.582;9.962;2023-05-07T08:19:44;10.80;99.90
4749;DHT22;2388;53.582;9.962;2023-05-07T08:22:10;10.80;99.90
4749;DHT22;2388;53.582;9.962;2023-05-07T08:24:36;10.70;99.90
4749;DHT22;2388;53.582;9.962;2023-05-07T08:27:01;10.70;99.90
4749;DHT22;2388;53.582;9.962;2023-05-07T08:29:27;10.70;99.90
4749;DHT22;2388;53.582;9.962;2023-05-07T08:31:52;10.60;99.90
4749;DHT22;2388;53.582;9.962;2023-05-07T08:34:18;10.60;99.90
4749;DHT22;2388;53.582;9.962;2023-05-07T08:36:44;10.60;99.90
4749;DHT22;2388;53.582;9.962;2023-05-07T08:39:12;10.60;99.90
4749;DHT22;2388;53.582;9.962;2023-05-07T08:41:37;10.70;99.90
4749;DHT22;2388;53.582;9.962;2023-05-07T08:44:06;10.80;99.90
4749;DHT22;2388;53.582;9.962;2023-05-07T08:46:36;10.80;99.90
4749;DHT22;2388;53.582;9.962;2023-05-07T08:49:02;10.90;99.90
4749;DHT22;2388;53.582;9.962;2023-05-07T08:51:28;10.90;99.90
4749;DHT22;2388;53.582;9.962;2023-05-07T08:53:53;10.90;99.90
4749;DHT22;2388;53.582;9.962;2023-05-07T08:56:19;11.00;99.90
4749;DHT22;2388;53.582;9.962;2023-05-07T08:58:45;10.90;99.90
4749;DHT22;2388;53.582;9.962;2023-05-07T09:01:15;10.90;99.90
4749;DHT22;2388;53.582;9.962;2023-05-07T09:03:43;10.90;99.90
4749;DHT22;2388;53.582;9.962;2023-05-07T09:06:09;10.80;99.90
4749;DHT22;2388;53.582;9.962;2023-05-07T09:08:35;10.70;99.90
4749;DHT22;2388;53.582;9.962;2023-05-07T09:11:01;10.70;99.90
4749;DHT22;2388;53.582;9.962;2023-05-07T09:13:28;10.70;99.90
4749;DHT22;2388;53.582;9.962;2023-05-07T09:15:54;11.10;99.90
4749;DHT22;2388;53.582;9.962;2023-05-07T09:18:19;10.80;99.90
4749;DHT22;2388;53.582;9.962;2023-05-07T09:20:45;10.80;99.90
4749;DHT22;2388;53.582;9.962;2023-05-07T09:23:10;10.80;99.90
4749;DHT22;2388;53.582;9.962;2023-05-07T09:25:36;10.80;99.90
4749;DHT22;2388;53.582;9.962;2023-05-07T09:28:03;10.90;99.90
4749;DHT22;2388;53.582;9.962;2023-05-07T09:30:30;10.90;99.90
4749;DHT22;2388;53.582;9.962;2023-05-07T09:32:57;10.90;99.90
4749;DHT22;2388;53.582;9.962;2023-05-07T09:35:24;11.00;99.90
4749;DHT22;2388;53.582;9.962;2023-05-07T09:37:53;11.00;99.90
4749;DHT22;2388;53.582;9.962;2023-05-07T09:40:26;11.00;99.90
4749;DHT22;2388;53.582;9.962;2023-05-07T09:42:52;11.10;99.90
4749;DHT22;2388;53.582;9.962;2023-05-07T09:45:25;11.20;99.90
4749;DHT22;2388;53.582;9.962;2023-05-07T09:47:57;11.20;99.90
4749;DHT22;2388;53.582;9.962;2023-05-07T09:50:28;11.20;99.90
4749;DHT22;2388;53.582;9.962;2023-05-07T09:52:54;11.10;99.90
4749;DHT22;2388;53.582;9.962;2023-05-07T09:55:21;11.20;99.90
4749;DHT22;2388;53.582;9.962;2023-05-07T09:57:51;11.30;99.90
4749;DHT22;2388;53.582;9.962;2023-05-07T10:00:19;11.30;99.90
4749;DHT22;2388;53.582;9.962;2023-05-07T10:02:48;11.30;99.90
4749;DHT22;2388;53.582;9.962;2023-05-07T10:05:15;11.30;99.90
4749;DHT22;2388;53.582;9.962;2023-05-07T10:07:41;11.40;99.90
4749;DHT22;2388;53.582;9.962;2023-05-07T10:10:08;11.50;99.90
4749;DHT22;2388;53.582;9.962;2023-05-07T10:12:33;11.50;99.90
4749;DHT22;2388;53.582;9.962;2023-05-07T10:15:06;11.50;99.90
4749;DHT22;2388;53.582;9.962;2023-05-07T10:17:35;11.50;99.90
4749;DHT22;2388;53.582;9.962;2023-05-07T10:20:00;11.50;99.90
4749;DHT22;2388;53.582;9.962;2023-05-07T10:22:27;11.60;99.90
4749;DHT22;2388;53.582;9.962;2023-05-07T10:24:55;11.50;99.90
4749;DHT22;2388;53.582;9.962;2023-05-07T10:27:22;11.60;99.90
4749;DHT22;2388;53.582;9.962;2023-05-07T10:30:07;11.60;99.90
4749;DHT22;2388;53.582;9.962;2023-05-07T10:32:45;11.60;99.90
4749;DHT22;2388;53.582;9.962;2023-05-07T10:35:15;11.70;99.90
4749;DHT22;2388;53.582;9.962;2023-05-07T10:37:42;11.70;99.90
4749;DHT22;2388;53.582;9.962;2023-05-07T10:40:09;11.70;99.90
4749;DHT22;2388;53.582;9.962;2023-05-07T10:42:35;11.80;99.90
4749;DHT22;2388;53.582;9.962;2023-05-07T10:45:14;11.70;99.90
4749;DHT22;2388;53.582;9.962;2023-05-07T10:48:08;11.70;99.90
4749;DHT22;2388;53.582;9.962;2023-05-07T10:50:35;11.70;99.90
4749;DHT22;2388;53.582;9.962;2023-05-07T10:58:41;11.70;99.90
4749;DHT22;2388;53.582;9.962;2023-05-07T11:01:06;11.90;99.90
4749;DHT22;2388;53.582;9.962;2023-05-07T11:03:32;11.70;99.90
4749;DHT22;2388;53.582;9.962;2023-05-07T11:06:15;11.70;99.90
4749;DHT22;2388;53.582;9.962;2023-05-07T11:11:18;11.90;99.90
4749;DHT22;2388;53.582;9.962;2023-05-07T11:13:48;11.80;99.90
4749;DHT22;2388;53.582;9.962;2023-05-07T11:16:22;12.00;99.90
4749;DHT22;2388;53.582;9.962;2023-05-07T11:18:53;12.00;99.90
4749;DHT22;2388;53.582;9.962;2023-05-07T11:21:33;12.10;99.90
4749;DHT22;2388;53.582;9.962;2023-05-07T11:23:59;12.10;99.90
4749;DHT22;2388;53.582;9.962;2023-05-07T11:26:27;12.10;99.90
4749;DHT22;2388;53.582;9.962;2023-05-07T11:28:53;12.00;99.90
4749;DHT22;2388;53.582;9.962;2023-05-07T11:31:24;12.20;99.90
4749;DHT22;2388;53.582;9.962;2023-05-07T11:33:52;12.20;99.90
4749;DHT22;2388;53.582;9.962;2023-05-07T11:36:18;12.30;99.90
4749;DHT22;2388;53.582;9.962;2023-05-07T11:38:45;12.40;99.90
4749;DHT22;2388;53.582;9.962;2023-05-07T11:41:10;12.40;99.90
4749;DHT22;2388;53.582;9.962;2023-05-07T11:43:36;12.40;99.90
4749;DHT22;2388;53.582;9.962;2023-05-07T11:46:07;12.50;99.90
4749;DHT22;2388;53.582;9.962;2023-05-07T11:48:33;12.60;99.90
4749;DHT22;2388;53.582;9.962;2023-05-07T11:53:28;12.80;99.90
4749;DHT22;2388;53.582;9.962;2023-05-07T11:55:59;12.90;99.90
4749;DHT22;2388;53.582;9.962;2023-05-07T11:58:25;13.00;99.90
4749;DHT22;2388;53.582;9.962;2023-05-07T12:00:54;13.10;99.90
4749;DHT22;2388;53.582;9.962;2023-05-07T12:03:23;13.10;99.90
4749;DHT22;2388;53.582;9.962;2023-05-07T12:05:48;13.00;99.90
4749;DHT22;2388;53.582;9.962;2023-05-07T12:08:18;13.00;99.90
4749;DHT22;2388;53.582;9.962;2023-05-07T12:10:45;13.10;99.90
4749;DHT22;2388;53.582;9.962;2023-05-07T12:13:20;13.20;99.90
4749;DHT22;2388;53.582;9.962;2023-05-07T12:15:46;13.30;99.90
4749;DHT22;2388;53.582;9.962;2023-05-07T12:18:12;13.40;99.90
4749;DHT22;2388;53.582;9.962;2023-05-07T12:20:39;13.60;99.90
4749;DHT22;2388;53.582;9.962;2023-05-07T12:23:04;13.80;99.90
4749;DHT22;2388;53.582;9.962;2023-05-07T12:25:40;13.80;99.90
4749;DHT22;2388;53.582;9.962;2023-05-07T12:28:18;13.80;99.90
4749;DHT22;2388;53.582;9.962;2023-05-07T12:30:46;13.90;99.90
4749;DHT22;2388;53.582;9.962;2023-05-07T12:33:14;13.80;99.90
4749;DHT22;2388;53.582;9.962;2023-05-07T12:35:42;13.90;99.90
4749;DHT22;2388;53.582;9.962;2023-05-07T12:38:12;14.00;99.90
4749;DHT22;2388;53.582;9.962;2023-05-07T12:40:46;14.00;99.90
4749;DHT22;2388;53.582;9.962;2023-05-07T12:43:25;13.90;99.90
4749;DHT22;2388;53.582;9.962;2023-05-07T12:45:54;14.00;99.90
4749;DHT22;2388;53.582;9.962;2023-05-07T12:48:21;14.00;99.90
4749;DHT22;2388;53.582;9.962;2023-05-07T12:50:50;14.00;99.90
4749;DHT22;2388;53.582;9.962;2023-05-07T12:53:16;14.00;99.90
4749;DHT22;2388;53.582;9.962;2023-05-07T12:55:49;14.00;99.90
4749;DHT22;2388;53.582;9.962;2023-05-07T12:58:29;14.10;99.90
4749;DHT22;2388;53.582;9.962;2023-05-07T13:00:57;14.10;99.90
4749;DHT22;2388;53.582;9.962;2023-05-07T13:03:33;14.30;99.90
4749;DHT22;2388;53.582;9.962;2023-05-07T13:06:03;14.30;99.90
4749;DHT22;2388;53.582;9.962;2023-05-07T13:08:39;14.30;99.90
4749;DHT22;2388;53.582;9.962;2023-05-07T13:11:07;14.40;99.90
4749;DHT22;2388;53.582;9.962;2023-05-07T13:13:37;14.40;99.90
4749;DHT22;2388;53.582;9.962;2023-05-07T13:16:07;14.40;99.90
4749;DHT22;2388;53.582;9.962;2023-05-07T13:18:34;14.50;99.90
4749;DHT22;2388;53.582;9.962;2023-05-07T13:21:00;14.60;99.90
4749;DHT22;2388;53.582;9.962;2023-05-07T13:23:26;14.60;99.90
4749;DHT22;2388;53.582;9.962;2023-05-07T13:25:52;14.70;99.90
4749;DHT22;2388;53.582;9.962;2023-05-07T13:28:21;14.80;99.90
4749;DHT22;2388;53.582;9.962;2023-05-07T13:30:47;14.90;99.90
4749;DHT22;2388;53.582;9.962;2023-05-07T13:33:13;15.00;99.90
4749;DHT22;2388;53.582;9.962;2023-05-07T13:35:39;15.10;99.90
4749;DHT22;2388;53.582;9.962;2023-05-07T13:38:04;15.20;99.90
4749;DHT22;2388;53.582;9.962;2023-05-07T13:40:30;15.20;99.90
4749;DHT22;2388;53.582;9.962;2023-05-07T13:42:57;15.40;99.90
4749;DHT22;2388;53.582;9.962;2023-05-07T13:45:24;15.40;99.90
4749;DHT22;2388;53.582;9.962;2023-05-07T13:47:51;15.40;99.90
4749;DHT22;2388;53.582;9.962;2023-05-07T13:50:17;15.60;99.90
4749;DHT22;2388;53.582;9.962;2023-05-07T13:52:43;15.70;99.90
4749;DHT22;2388;53.582;9.962;2023-05-07T13:55:12;15.80;99.90
4749;DHT22;2388;53.582;9.962;2023-05-07T13:57:38;15.80;99.90
4749;DHT22;2388;53.582;9.962;2023-05-07T14:00:04;15.90;99.90
4749;DHT22;2388;53.582;9.962;2023-05-07T14:02:30;16.00;99.90
4749;DHT22;2388;53.582;9.962;2023-05-07T14:04:56;15.80;99.90
4749;DHT22;2388;53.582;9.962;2023-05-07T14:07:21;15.80;99.90
4749;DHT22;2388;53.582;9.962;2023-05-07T14:09:47;15.70;99.90
4749;DHT22;2388;53.582;9.962;2023-05-07T14:12:12;15.70;99.90
4749;DHT22;2388;53.582;9.962;2023-05-07T14:14:38;15.70;99.90
4749;DHT22;2388;53.582;9.962;2023-05-07T14:17:03;15.70;99.90
4749;DHT22;2388;53.582;9.962;2023-05-07T14:19:29;15.70;99.90
4749;DHT22;2388;53.582;9.962;2023-05-07T14:21:54;15.80;99.90
4749;DHT22;2388;53.582;9.962;2023-05-07T14:24:20;15.80;99.90
4749;DHT22;2388;53.582;9.962;2023-05-07T14:26:45;15.70;99.90
4749;DHT22;2388;53.582;9.962;2023-05-07T14:29:11;15.80;99.90
4749;DHT22;2388;53.582;9.962;2023-05-07T14:31:36;15.90;99.90
4749;DHT22;2388;53.582;9.962;2023-05-07T14:34:02;16.00;99.90
4749;DHT22;2388;53.582;9.962;2023-05-07T14:36:27;16.00;99.90
4749;DHT22;2388;53.582;9.962;2023-05-07T14:38:53;16.20;99.90
4749;DHT22;2388;53.582;9.962;2023-05-07T14:41:20;16.30;99.90
4749;DHT22;2388;53.582;9.962;2023-05-07T14:43:47;16.30;99.90
4749;DHT22;2388;53.582;9.962;2023-05-07T14:46:18;16.30;99.90
4749;DHT22;2388;53.582;9.962;2023-05-07T14:48:47;16.20;99.90
4749;DHT22;2388;53.582;9.962;2023-05-07T14:51:13;16.20;99.90
4749;DHT22;2388;53.582;9.962;2023-05-07T14:53:40;16.50;99.90
4749;DHT22;2388;53.582;9.962;2023-05-07T14:56:06;16.70;99.90
4749;DHT22;2388;53.582;9.962;2023-05-07T14:58:32;16.90;99.90
4749;DHT22;2388;53.582;9.962;2023-05-07T15:00:57;17.10;99.90
4749;DHT22;2388;53.582;9.962;2023-05-07T15:03:23;17.10;99.90
4749;DHT22;2388;53.582;9.962;2023-05-07T15:05:49;17.00;99.90
4749;DHT22;2388;53.582;9.962;2023-05-07T15:08:17;16.90;99.90
4749;DHT22;2388;53.582;9.962;2023-05-07T15:10:42;16.70;99.90
4749;DHT22;2388;53.582;9.962;2023-05-07T15:13:10;16.60;99.90
4749;DHT22;2388;53.582;9.962;2023-05-07T15:15:36;16.40;99.90
4749;DHT22;2388;53.582;9.962;2023-05-07T15:18:02;16.40;99.90
4749;DHT22;2388;53.582;9.962;2023-05-07T15:20:27;16.20;99.90
4749;DHT22;2388;53.582;9.962;2023-05-07T15:22:53;16.30;99.90
4749;DHT22;2388;53.582;9.962;2023-05-07T15:25:19;16.30;99.90
4749;DHT22;2388;53.582;9.962;2023-05-07T15:27:44;16.30;99.90
4749;DHT22;2388;53.582;9.962;2023-05-07T15:30:11;16.20;99.90
4749;DHT22;2388;53.582;9.962;2023-05-07T15:32:37;16.30;99.90
4749;DHT22;2388;53.582;9.962;2023-05-07T15:35:04;16.20;99.90
4749;DHT22;2388;53.582;9.962;2023-05-07T15:37:33;16.20;99.90
4749;DHT22;2388;53.582;9.962;2023-05-07T15:39:58;16.20;99.90
4749;DHT22;2388;53.582;9.962;2023-05-07T15:42:24;16.10;99.90
4749;DHT22;2388;53.582;9.962;2023-05-07T15:44:50;16.10;99.90
4749;DHT22;2388;53.582;9.962;2023-05-07T15:47:15;16.00;99.90
4749;DHT22;2388;53.582;9.962;2023-05-07T15:49:41;16.00;99.90
4749;DHT22;2388;53.582;9.962;2023-05-07T15:52:07;15.90;99.90
4749;DHT22;2388;53.582;9.962;2023-05-07T15:54:39;15.90;99.90
4749;DHT22;2388;53.582;9.962;2023-05-07T15:57:05;15.90;99.90
4749;DHT22;2388;53.582;9.962;2023-05-07T15:59:32;15.80;99.90
4749;DHT22;2388;53.582;9.962;2023-05-07T16:01:57;15.80;99.90
4749;DHT22;2388;53.582;9.962;2023-05-07T16:04:23;15.80;99.90
4749;DHT22;2388;53.582;9.962;2023-05-07T16:06:48;15.80;99.90
4749;DHT22;2388;53.582;9.962;2023-05-07T16:09:14;15.70;99.90
4749;DHT22;2388;53.582;9.962;2023-05-07T16:11:41;15.70;99.90
4749;DHT22;2388;53.582;9.962;2023-05-07T16:14:06;15.70;99.90
4749;DHT22;2388;53.582;9.962;2023-05-07T16:16:33;15.70;99.90
4749;DHT22;2388;53.582;9.962;2023-05-07T16:18:58;15.70;99.90